createdAt,value
2022-08-12T00:00:05.300Z,17.36
2022-08-12T00:02:50.167Z,17.30
2022-08-12T00:05:38.075Z,17.25
2022-08-12T00:08:43.574Z,17.17
2022-08-12T00:11:28.980Z,17.15
2022-08-12T00:14:13.756Z,17.12
2022-08-12T00:16:59.080Z,17.06
2022-08-12T00:19:45.919Z,17.02
2022-08-12T00:22:32.156Z,16.98
2022-08-12T00:25:21.186Z,16.90
2022-08-12T00:28:26.679Z,16.82
2022-08-12T00:31:11.588Z,16.71
2022-08-12T00:33:57.389Z,16.71
2022-08-12T00:36:50.074Z,16.71
2022-08-12T00:39:35.877Z,16.72
2022-08-12T00:42:12.066Z,16.71
2022-08-12T00:44:41.356Z,16.79
2022-08-12T00:47:25.024Z,16.83
2022-08-12T00:49:54.254Z,16.84
2022-08-12T00:52:22.138Z,16.80
2022-08-12T00:54:51.352Z,16.74
2022-08-12T00:57:23.705Z,16.77
2022-08-12T00:59:59.367Z,16.77
2022-08-12T01:02:34.682Z,16.77
2022-08-12T01:05:29.466Z,16.66
2022-08-12T01:08:14.833Z,16.62
2022-08-12T01:11:04.122Z,16.61
2022-08-12T01:13:34.251Z,16.62
2022-08-12T01:16:04.948Z,16.70
2022-08-12T01:18:39.740Z,16.72
2022-08-12T01:21:09.151Z,16.70
2022-08-12T01:23:56.985Z,16.67
2022-08-12T01:26:24.985Z,16.67
2022-08-12T01:28:59.357Z,16.63
2022-08-12T01:31:27.602Z,16.63
2022-08-12T01:34:28.345Z,16.61
2022-08-12T01:36:59.240Z,16.58
2022-08-12T01:39:33.425Z,16.54
2022-08-12T01:42:08.322Z,16.51
2022-08-12T01:44:36.418Z,16.46
2022-08-12T01:47:14.841Z,16.43
2022-08-12T01:50:13.383Z,16.44
2022-08-12T01:52:55.026Z,16.35
2022-08-12T01:55:33.276Z,16.33
2022-08-12T01:58:28.736Z,16.30
2022-08-12T02:01:03.981Z,16.25
2022-08-12T02:03:52.181Z,16.22
2022-08-12T02:06:48.486Z,16.25
2022-08-12T02:09:39.719Z,16.26
2022-08-12T02:12:24.279Z,16.23
2022-08-12T02:15:04.562Z,16.22
2022-08-12T02:17:55.951Z,16.16
2022-08-12T02:20:34.269Z,16.16
2022-08-12T02:23:19.346Z,16.18
2022-08-12T02:25:47.335Z,16.18
2022-08-12T02:28:14.115Z,16.12
2022-08-12T02:30:42.451Z,16.12
2022-08-12T02:33:10.472Z,16.11
2022-08-12T02:35:37.484Z,16.06
2022-08-12T02:38:07.133Z,16.04
2022-08-12T02:40:37.527Z,15.98
2022-08-12T02:43:32.004Z,15.95
2022-08-12T02:46:04.423Z,15.95
2022-08-12T02:48:37.600Z,15.94
2022-08-12T02:51:06.734Z,15.90
2022-08-12T02:53:36.447Z,15.89
2022-08-12T02:56:04.426Z,15.89
2022-08-12T02:58:35.851Z,15.88
2022-08-12T03:01:11.279Z,15.88
2022-08-12T03:03:39.451Z,15.82
2022-08-12T03:06:21.356Z,15.77
2022-08-12T03:08:53.776Z,15.66
2022-08-12T03:11:23.720Z,15.62
2022-08-12T03:13:58.396Z,15.58
2022-08-12T03:16:27.928Z,15.58
2022-08-12T03:18:54.816Z,15.58
2022-08-12T03:21:55.313Z,15.53
2022-08-12T03:24:12.791Z,15.53
2022-08-12T03:26:42.413Z,15.52
2022-08-12T03:29:10.305Z,15.47
2022-08-12T03:31:36.803Z,15.39
2022-08-12T03:34:08.810Z,15.33
2022-08-12T03:36:37.609Z,15.31
2022-08-12T03:39:36.463Z,15.32
2022-08-12T03:42:12.856Z,15.26
2022-08-12T03:45:11.601Z,15.21
2022-08-12T03:48:19.214Z,15.16
2022-08-12T03:51:06.450Z,15.14
2022-08-12T03:53:52.824Z,15.08
2022-08-12T03:56:38.123Z,15.00
2022-08-12T03:59:25.492Z,14.99
2022-08-12T04:01:57.695Z,14.86
2022-08-12T04:04:33.853Z,14.82
2022-08-12T04:07:10.001Z,14.80
2022-08-12T04:09:38.980Z,14.79
2022-08-12T04:12:26.143Z,14.78
2022-08-12T04:14:54.672Z,14.76
2022-08-12T04:17:21.394Z,14.73
2022-08-12T04:19:48.786Z,14.77
2022-08-12T04:22:16.382Z,14.81
2022-08-12T04:24:44.282Z,14.83
2022-08-12T04:27:17.236Z,14.91
2022-08-12T04:30:31.276Z,14.93
2022-08-12T04:32:31.948Z,15.00
2022-08-12T04:34:58.901Z,15.04
2022-08-12T04:37:25.376Z,15.09
2022-08-12T04:39:54.016Z,15.18
2022-08-12T04:42:21.264Z,15.21
2022-08-12T04:44:48.378Z,15.31
2022-08-12T04:47:16.513Z,15.40
2022-08-12T04:49:44.325Z,15.56
2022-08-12T04:52:11.068Z,15.69
2022-08-12T04:54:37.922Z,15.81
2022-08-12T04:57:05.844Z,15.86
2022-08-12T04:59:48.300Z,15.89
2022-08-12T05:02:21.317Z,15.88
2022-08-12T05:04:51.077Z,15.83
2022-08-12T05:07:17.509Z,15.79
2022-08-12T05:10:00.884Z,15.79
2022-08-12T05:12:39.523Z,15.83
2022-08-12T05:15:12.743Z,15.94
2022-08-12T05:17:54.053Z,17.42
2022-08-12T05:20:20.985Z,20.83
2022-08-12T05:22:47.542Z,23.52
2022-08-12T05:25:15.722Z,25.53
2022-08-12T05:27:59.200Z,27.03
2022-08-12T05:30:27.684Z,28.06
2022-08-12T05:33:00.063Z,28.82
2022-08-12T05:35:27.732Z,29.02
2022-08-12T05:38:14.176Z,29.48
2022-08-12T05:40:41.713Z,29.39
2022-08-12T05:43:08.538Z,28.64
2022-08-12T05:45:35.176Z,27.10
2022-08-12T05:48:02.567Z,25.95
2022-08-12T05:50:29.135Z,26.75
2022-08-12T05:52:55.666Z,26.72
2022-08-12T05:55:24.199Z,25.71
2022-08-12T05:57:55.133Z,24.30
2022-08-12T06:00:25.474Z,23.20
2022-08-12T06:02:57.282Z,22.58
2022-08-12T06:05:23.810Z,22.08
2022-08-12T06:08:00.889Z,21.68
2022-08-12T06:10:32.187Z,21.49
2022-08-12T06:13:02.182Z,21.34
2022-08-12T06:15:29.114Z,21.21
2022-08-12T06:18:05.268Z,21.13
2022-08-12T06:20:40.684Z,21.11
2022-08-12T06:23:08.120Z,21.16
2022-08-12T06:25:34.755Z,21.25
2022-08-12T06:28:06.398Z,21.28
2022-08-12T06:30:38.431Z,21.30
2022-08-12T06:33:22.916Z,21.40
2022-08-12T06:35:57.792Z,21.54
2022-08-12T06:38:26.874Z,21.65
2022-08-12T06:41:17.378Z,21.71
2022-08-12T06:44:06.119Z,21.81
2022-08-12T06:46:32.168Z,21.84
2022-08-12T06:48:59.648Z,21.91
2022-08-12T06:51:29.198Z,21.99
2022-08-12T06:53:56.496Z,22.10
2022-08-12T06:56:39.960Z,22.23
2022-08-12T06:59:11.603Z,22.31
2022-08-12T07:01:38.475Z,22.45
2022-08-12T07:04:26.488Z,22.51
2022-08-12T07:06:51.492Z,22.59
2022-08-12T07:10:05.527Z,22.62
2022-08-12T07:12:04.903Z,22.63
2022-08-12T07:14:31.681Z,22.74
2022-08-12T07:17:02.091Z,22.79
2022-08-12T07:19:40.597Z,22.71
2022-08-12T07:22:13.462Z,22.66
2022-08-12T07:24:40.192Z,22.80
2022-08-12T07:27:06.634Z,22.89
2022-08-12T07:30:03.419Z,23.04
2022-08-12T07:32:24.351Z,23.21
2022-08-12T07:34:51.024Z,23.34
2022-08-12T07:37:17.815Z,23.49
2022-08-12T07:39:50.089Z,23.57
2022-08-12T07:42:19.071Z,23.75
2022-08-12T07:44:47.346Z,23.86
2022-08-12T07:47:18.242Z,23.93
2022-08-12T07:50:03.719Z,23.99
2022-08-12T07:52:31.485Z,24.09
2022-08-12T07:54:59.378Z,24.20
2022-08-12T07:57:26.149Z,24.34
2022-08-12T07:59:55.830Z,24.52
2022-08-12T08:02:26.710Z,24.63
2022-08-12T08:04:57.199Z,24.75
2022-08-12T08:07:29.526Z,24.77
2022-08-12T08:10:01.279Z,24.87
2022-08-12T08:12:48.546Z,25.01
2022-08-12T08:15:16.600Z,25.09
2022-08-12T08:17:59.550Z,25.26
2022-08-12T08:20:30.422Z,25.29
2022-08-12T08:22:58.225Z,25.45
2022-08-12T08:25:36.255Z,25.49
2022-08-12T08:28:09.659Z,25.58
2022-08-12T08:30:42.450Z,25.77
2022-08-12T08:33:22.647Z,25.87
2022-08-12T08:35:54.403Z,25.92
2022-08-12T08:38:31.986Z,25.95
2022-08-12T08:42:14.033Z,26.12
2022-08-12T08:44:10.573Z,26.12
2022-08-12T08:46:38.219Z,26.19
2022-08-12T08:49:05.723Z,26.20
2022-08-12T08:51:32.784Z,26.26
2022-08-12T08:53:59.271Z,26.38
2022-08-12T08:56:27.099Z,26.47
2022-08-12T08:58:53.741Z,26.55
2022-08-12T09:01:23.269Z,26.58
2022-08-12T09:05:07.959Z,26.64
2022-08-12T09:06:39.701Z,26.69
2022-08-12T09:12:15.030Z,26.70
2022-08-12T09:14:54.529Z,26.71
2022-08-12T09:17:22.290Z,26.90
2022-08-12T09:19:55.103Z,26.99
2022-08-12T09:22:22.427Z,26.97
2022-08-12T09:24:55.292Z,27.02
2022-08-12T09:27:27.167Z,27.15
2022-08-12T09:30:15.998Z,27.31
2022-08-12T09:33:04.042Z,27.37
2022-08-12T09:35:44.366Z,27.44
2022-08-12T09:38:27.702Z,27.36
2022-08-12T09:42:07.154Z,27.41
2022-08-12T09:44:05.528Z,27.56
2022-08-12T09:46:34.445Z,27.55
2022-08-12T09:49:04.073Z,27.65
2022-08-12T09:51:44.035Z,27.74
2022-08-12T09:54:34.136Z,27.69
2022-08-12T09:57:03.675Z,27.93
2022-08-12T10:00:16.370Z,28.10
2022-08-12T10:02:44.235Z,28.19
2022-08-12T10:05:17.994Z,28.12
2022-08-12T10:07:47.278Z,28.17
2022-08-12T10:10:24.091Z,28.17
2022-08-12T10:13:13.327Z,28.47
2022-08-12T10:16:02.952Z,28.60
2022-08-12T10:18:32.779Z,28.66
2022-08-12T10:21:05.963Z,28.87
2022-08-12T10:23:39.850Z,28.90
2022-08-12T10:26:36.647Z,29.09
2022-08-12T10:30:38.109Z,29.15
2022-08-12T10:32:21.632Z,29.29
2022-08-12T10:34:53.801Z,29.10
2022-08-12T10:38:34.247Z,28.95
2022-08-12T10:40:19.036Z,28.85
2022-08-12T10:43:05.242Z,29.02
2022-08-12T10:45:31.784Z,29.15
2022-08-12T10:48:19.007Z,29.32
2022-08-12T10:50:58.318Z,29.48
2022-08-12T10:53:45.475Z,29.64
2022-08-12T10:56:17.397Z,29.67
2022-08-12T10:58:46.864Z,29.80
2022-08-12T11:03:01.489Z,30.00
2022-08-12T11:04:26.469Z,30.17
2022-08-12T11:07:09.011Z,29.76
2022-08-12T11:09:51.319Z,30.05
2022-08-12T11:12:54.657Z,29.86
2022-08-12T11:15:18.873Z,29.97
2022-08-12T11:17:53.333Z,29.86
2022-08-12T11:20:29.048Z,29.94
2022-08-12T11:22:59.589Z,30.00
2022-08-12T11:25:56.070Z,29.99
2022-08-12T11:28:14.899Z,30.06
2022-08-12T11:30:43.337Z,30.14
2022-08-12T11:33:11.990Z,30.25
2022-08-12T11:35:43.638Z,30.54
2022-08-12T11:38:11.045Z,30.50
2022-08-12T11:40:38.007Z,30.52
2022-08-12T11:43:19.644Z,30.36
2022-08-12T11:45:47.551Z,30.78
2022-08-12T11:48:19.660Z,30.97
2022-08-12T11:50:53.561Z,31.04
2022-08-12T11:53:56.948Z,30.81
2022-08-12T11:56:07.440Z,30.74
2022-08-12T12:00:23.954Z,30.76
2022-08-12T12:02:02.421Z,30.74
2022-08-12T12:04:12.118Z,30.91
2022-08-12T12:06:38.686Z,30.63
2022-08-12T12:09:08.123Z,30.73
2022-08-12T12:11:49.041Z,30.88
2022-08-12T12:14:16.340Z,30.69
2022-08-12T12:16:48.293Z,30.92
2022-08-12T12:19:17.674Z,30.77
2022-08-12T12:21:47.393Z,30.92
2022-08-12T12:24:21.558Z,30.63
2022-08-12T12:26:59.762Z,30.51
2022-08-12T12:30:13.433Z,30.71
2022-08-12T12:32:19.524Z,30.99
2022-08-12T12:35:44.391Z,31.15
2022-08-12T12:38:04.207Z,31.00
2022-08-12T12:40:34.366Z,31.36
2022-08-12T12:43:05.228Z,31.20
2022-08-12T12:45:35.456Z,31.33
2022-08-12T12:48:08.419Z,31.29
2022-08-12T12:50:45.575Z,31.39
2022-08-12T12:54:07.984Z,31.29
2022-08-12T12:56:15.318Z,31.11
2022-08-12T12:58:43.493Z,31.52
2022-08-12T13:01:25.351Z,31.83
2022-08-12T13:03:56.295Z,32.14
2022-08-12T13:06:30.089Z,32.30
2022-08-12T13:09:02.709Z,32.43
2022-08-12T13:11:41.290Z,32.10
2022-08-12T13:14:29.063Z,32.23
2022-08-12T13:16:57.524Z,31.92
2022-08-12T13:19:36.471Z,32.15
2022-08-12T13:22:21.636Z,32.03
2022-08-12T13:24:55.860Z,32.06
2022-08-12T13:27:34.432Z,31.98
2022-08-12T13:30:10.665Z,32.00
2022-08-12T13:32:40.063Z,31.64
2022-08-12T13:35:33.702Z,31.47
2022-08-12T13:37:58.022Z,31.42
2022-08-12T13:40:34.331Z,31.46
2022-08-12T13:43:06.767Z,31.37
2022-08-12T13:45:34.801Z,31.40
2022-08-12T13:48:03.963Z,31.40
2022-08-12T13:50:36.448Z,31.67
2022-08-12T13:53:24.132Z,31.61
2022-08-12T13:55:59.881Z,31.83
2022-08-12T13:58:30.082Z,32.24
2022-08-12T14:00:58.103Z,32.29
2022-08-12T14:03:28.278Z,32.59
2022-08-12T14:06:15.377Z,32.55
2022-08-12T14:08:43.306Z,32.11
2022-08-12T14:11:09.897Z,32.11
2022-08-12T14:14:03.856Z,32.27
2022-08-12T14:16:37.809Z,32.09
2022-08-12T14:19:22.821Z,32.25
2022-08-12T14:22:00.688Z,32.30
2022-08-12T14:24:35.123Z,32.47
2022-08-12T14:27:08.708Z,32.19
2022-08-12T14:29:38.136Z,31.91
2022-08-12T14:32:23.703Z,31.60
2022-08-12T14:34:51.372Z,31.74
2022-08-12T14:37:56.236Z,31.80
2022-08-12T14:40:06.386Z,31.78
2022-08-12T14:42:33.049Z,31.88
2022-08-12T14:45:01.885Z,31.80
2022-08-12T14:47:35.054Z,32.02
2022-08-12T14:50:37.410Z,32.06
2022-08-12T14:58:27.793Z,32.00
2022-08-12T15:01:13.880Z,31.95
2022-08-12T15:03:52.779Z,32.13
2022-08-12T15:06:39.834Z,32.45
2022-08-12T15:09:16.339Z,32.49
2022-08-12T15:11:48.848Z,32.51
2022-08-12T15:14:26.575Z,32.09
2022-08-12T15:16:54.416Z,32.05
2022-08-12T15:20:28.634Z,32.18
2022-08-12T15:22:38.834Z,32.32
2022-08-12T15:24:54.648Z,32.31
2022-08-12T15:27:22.430Z,32.28
2022-08-12T15:29:58.555Z,32.32
2022-08-12T15:32:30.495Z,31.80
2022-08-12T15:35:00.314Z,31.70
2022-08-12T15:38:08.867Z,31.33
2022-08-12T15:40:14.362Z,31.43
2022-08-12T15:42:50.949Z,31.49
2022-08-12T15:45:23.644Z,31.56
2022-08-12T15:47:53.136Z,31.40
2022-08-12T15:50:32.457Z,31.57
2022-08-12T15:53:13.782Z,31.65
2022-08-12T15:55:46.159Z,31.50
2022-08-12T15:58:16.902Z,31.33
2022-08-12T16:00:43.760Z,31.49
2022-08-12T16:03:13.527Z,31.63
2022-08-12T16:06:19.040Z,31.30
2022-08-12T16:08:29.750Z,31.20
2022-08-12T16:10:57.604Z,31.32
2022-08-12T16:13:34.140Z,31.21
2022-08-12T16:16:23.124Z,31.37
2022-08-12T16:18:52.697Z,31.45
2022-08-12T16:21:51.147Z,31.49
2022-08-12T16:24:11.748Z,31.36
2022-08-12T16:26:40.548Z,31.22
2022-08-12T16:29:15.011Z,31.06
2022-08-12T16:31:44.170Z,31.09
2022-08-12T16:34:39.867Z,31.06
2022-08-12T16:37:03.101Z,30.93
2022-08-12T16:39:35.626Z,30.78
2022-08-12T16:42:22.611Z,30.77
2022-08-12T16:45:02.612Z,30.87
2022-08-12T16:47:36.755Z,30.74
2022-08-12T16:50:19.372Z,30.76
2022-08-12T16:52:50.167Z,30.73
2022-08-12T16:55:18.770Z,30.72
2022-08-12T16:57:48.571Z,30.65
2022-08-12T17:00:17.237Z,30.62
2022-08-12T17:02:45.001Z,30.73
2022-08-12T17:05:25.030Z,30.69
2022-08-12T17:07:59.753Z,30.68
2022-08-12T17:10:35.896Z,30.61
2022-08-12T17:13:09.429Z,30.55
2022-08-12T17:15:57.865Z,30.22
2022-08-12T17:18:43.053Z,30.04
2022-08-12T17:21:17.317Z,30.01
2022-08-12T17:23:53.076Z,29.88
2022-08-12T17:26:22.316Z,29.71
2022-08-12T17:28:56.051Z,29.62
2022-08-12T17:32:00.590Z,29.61
2022-08-12T17:34:29.567Z,29.72
2022-08-12T17:36:58.747Z,29.43
2022-08-12T17:40:15.818Z,29.34
2022-08-12T17:42:34.549Z,29.22
2022-08-12T17:45:17.494Z,29.24
2022-08-12T17:48:02.121Z,29.23
2022-08-12T17:50:36.670Z,29.05
2022-08-12T17:53:03.979Z,28.83
2022-08-12T17:55:43.457Z,28.80
2022-08-12T17:58:14.051Z,28.69
2022-08-12T18:00:44.059Z,28.48
2022-08-12T18:03:14.295Z,28.39
2022-08-12T18:06:07.589Z,28.30
2022-08-12T18:08:54.917Z,28.21
2022-08-12T18:12:06.438Z,28.05
2022-08-12T18:14:30.082Z,27.95
2022-08-12T18:17:00.811Z,27.88
2022-08-12T18:20:03.741Z,27.65
2022-08-12T18:22:22.033Z,27.56
2022-08-12T18:25:03.795Z,27.34
2022-08-12T18:27:44.685Z,27.18
2022-08-12T18:30:20.943Z,27.07
2022-08-12T18:33:03.965Z,26.87
2022-08-12T18:35:47.249Z,26.78
2022-08-12T18:38:22.333Z,26.61
2022-08-12T18:41:09.812Z,26.56
2022-08-12T18:44:00.151Z,26.41
2022-08-12T18:46:55.469Z,26.17
2022-08-12T18:49:29.648Z,26.05
2022-08-12T18:52:02.186Z,25.89
2022-08-12T18:54:32.290Z,25.71
2022-08-12T18:57:04.678Z,25.57
2022-08-12T19:00:02.371Z,25.40
2022-08-12T19:02:23.265Z,25.13
2022-08-12T19:04:53.416Z,24.93
2022-08-12T19:07:22.960Z,24.68
2022-08-12T19:09:58.805Z,24.63
2022-08-12T19:12:57.166Z,24.47
2022-08-12T19:15:26.676Z,24.23
2022-08-12T19:18:00.714Z,24.11
2022-08-12T19:20:30.659Z,23.91
2022-08-12T19:23:02.312Z,23.77
2022-08-12T19:26:00.303Z,23.66
2022-08-12T19:28:29.643Z,23.49
2022-08-12T19:31:17.578Z,23.35
2022-08-12T19:34:00.898Z,23.19
2022-08-12T19:36:34.518Z,22.96
2022-08-12T19:39:02.889Z,22.85
2022-08-12T19:42:00.628Z,22.64
2022-08-12T19:44:28.848Z,22.50
2022-08-12T19:46:55.965Z,22.40
2022-08-12T19:49:23.053Z,22.23
2022-08-12T19:51:50.506Z,22.11
2022-08-12T19:54:30.271Z,22.00
2022-08-12T19:56:58.453Z,21.87
2022-08-12T19:59:42.955Z,21.68
2022-08-12T20:02:33.196Z,21.49
2022-08-12T20:06:03.187Z,21.39
2022-08-12T20:07:57.032Z,21.30
2022-08-12T20:10:35.485Z,21.25
2022-08-12T20:13:17.599Z,21.24
2022-08-12T20:15:45.760Z,21.11
2022-08-12T20:18:19.136Z,21.05
2022-08-12T20:21:00.045Z,20.97
2022-08-12T20:23:50.476Z,20.92
2022-08-12T20:26:17.449Z,20.90
2022-08-12T20:28:45.368Z,20.81
2022-08-12T20:31:12.206Z,20.77
2022-08-12T20:33:50.707Z,20.72
2022-08-12T20:36:41.006Z,20.71
2022-08-12T20:39:33.775Z,20.64
2022-08-12T20:42:01.791Z,20.59
2022-08-12T20:44:34.312Z,20.59
2022-08-12T20:47:18.054Z,20.58
2022-08-12T20:49:55.529Z,20.55
2022-08-12T20:52:30.063Z,20.54
2022-08-12T20:54:57.954Z,20.69
2022-08-12T20:57:25.116Z,20.65
2022-08-12T21:00:16.420Z,20.60
2022-08-12T21:02:49.808Z,20.57
2022-08-12T21:06:09.416Z,20.53
2022-08-12T21:08:24.758Z,20.48
2022-08-12T21:10:51.467Z,20.47
2022-08-12T21:13:20.439Z,20.42
2022-08-12T21:15:55.152Z,20.50
2022-08-12T21:18:29.124Z,20.60
2022-08-12T21:20:58.786Z,20.66
2022-08-12T21:23:30.760Z,20.67
2022-08-12T21:26:05.991Z,20.69
2022-08-12T21:28:38.317Z,20.85
2022-08-12T21:32:34.764Z,20.78
2022-08-12T21:34:06.756Z,20.80
2022-08-12T21:36:43.207Z,20.89
2022-08-12T21:39:35.782Z,20.91
2022-08-12T21:42:06.705Z,20.84
2022-08-12T21:45:48.036Z,20.93
2022-08-12T21:47:23.197Z,20.89
2022-08-12T21:50:06.130Z,20.93
2022-08-12T21:52:48.858Z,21.04
2022-08-12T21:55:18.340Z,20.94
2022-08-12T21:57:50.684Z,20.92
2022-08-12T22:00:32.934Z,21.11
2022-08-12T22:04:04.219Z,21.41
2022-08-12T22:06:30.723Z,21.43
2022-08-12T22:09:15.757Z,21.34
2022-08-12T22:11:56.240Z,21.31
2022-08-12T22:14:28.573Z,21.34
2022-08-12T22:16:56.386Z,21.46
2022-08-12T22:19:23.473Z,21.68
2022-08-12T22:21:53.058Z,21.73
2022-08-12T22:24:26.230Z,21.80
2022-08-12T22:26:57.068Z,21.77
2022-08-12T22:29:42.709Z,21.66
2022-08-12T22:32:11.519Z,21.60
2022-08-12T22:34:39.179Z,21.47
2022-08-12T22:37:11.311Z,21.47
2022-08-12T22:39:46.323Z,21.38
2022-08-12T22:42:34.127Z,21.34
2022-08-12T22:45:22.972Z,21.29
2022-08-12T22:47:55.386Z,21.24
2022-08-12T22:50:28.852Z,21.25
2022-08-12T22:53:17.164Z,21.19
2022-08-12T22:56:00.193Z,21.24
2022-08-12T22:58:33.572Z,21.14
2022-08-12T23:01:01.984Z,21.19
2022-08-12T23:03:49.192Z,21.37
2022-08-12T23:06:21.283Z,21.40
2022-08-12T23:08:48.193Z,21.26
2022-08-12T23:11:16.191Z,21.17
2022-08-12T23:13:56.037Z,21.05
2022-08-12T23:16:31.481Z,20.90
2022-08-12T23:19:10.046Z,20.81
2022-08-12T23:22:05.953Z,20.72
2022-08-12T23:24:38.780Z,20.67
2022-08-12T23:27:50.462Z,20.75
2022-08-12T23:30:17.962Z,20.73
2022-08-12T23:32:45.997Z,20.71
2022-08-12T23:35:22.585Z,20.73
2022-08-12T23:37:53.565Z,20.89
2022-08-12T23:40:22.517Z,20.82
2022-08-12T23:42:54.836Z,20.90
2022-08-12T23:45:30.753Z,20.91
2022-08-12T23:47:59.969Z,20.83
2022-08-12T23:50:34.318Z,20.88
2022-08-12T23:53:05.718Z,20.73
2022-08-12T23:55:38.267Z,20.76
2022-08-12T23:58:21.412Z,20.68
